This is the latest recevied weather packets stored in our database for station/object HB9MIR-13. If no packets are shown the sender has not sent any weather packets the latest 10 day(s).
| Time | Temp. | Humidity | Pressure | Rain* | Wind** | Luminosity | Snow |
|---|---|---|---|---|---|---|---|
| 1777276897 | 12.78° C | 54% | 1019.9 hPa | 0 mm | - | 499 W/m² | - |
| 1777276197 | 12.22° C | 55% | 1019.9 hPa | 0 mm | - | 296 W/m² | - |
| 1777275510 | 11.67° C | 61% | 1020 hPa | 0 mm | - | 88 W/m² | - |
| 1777274824 | 10° C | 63% | 1020.1 hPa | 0 mm | - | 93 W/m² | - |
| 1777274137 | 8.89° C | 73% | 1020.2 hPa | 0 mm | - | 88 W/m² | - |
| 1777273450 | 8.33° C | 77% | 1020.3 hPa | 0 mm | - | 75 W/m² | - |
| 1777272762 | 7.78° C | 80% | 1020.5 hPa | 0 mm | - | 77 W/m² | - |
| 1777272087 | 7.22° C | 81% | 1020.5 hPa | 0 mm | - | 75 W/m² | - |
| 1777271388 | 6.67° C | 84% | 1020.6 hPa | 0 mm | - | 72 W/m² | - |
| 1777270700 | 5.56° C | 85% | 1020.6 hPa | 0 mm | - | 67 W/m² | - |
| 1777270013 | 5° C | 88% | 1020.6 hPa | 0 mm | - | 67 W/m² | - |
| 1777269324 | 4.44° C | 89% | 1020.6 hPa | 0 mm | - | 61 W/m² | - |
| 1777268638 | 3.89° C | 90% | 1020.5 hPa | 0 mm | - | 46 W/m² | - |
| 1777267952 | 3.89° C | 90% | 1020.5 hPa | 0 mm | - | 37 W/m² | - |
| 1777267277 | 3.33° C | 92% | 1020.5 hPa | 0 mm | - | 31 W/m² | - |
| 1777266577 | 3.33° C | 92% | 1020.3 hPa | 0 mm | - | 26 W/m² | - |
| 1777265889 | 3.33° C | 89% | 1020.3 hPa | 0 mm | - | 21 W/m² | - |
| 1777265203 | 3.33° C | 92% | 1020.2 hPa | 0 mm | - | 16 W/m² | - |
| 1777264514 | 2.78° C | 93% | 1020.2 hPa | 0 mm | - | 11 W/m² | - |
| 1777263826 | 2.78° C | 91% | 1020.1 hPa | 0 mm | - | 6 W/m² | - |
| 1777263139 | 3.33° C | 88% | 1020.1 hPa | 0 mm | - | 2 W/m² | - |
| 1777262464 | 3.89° C | 87% | 1020.1 hPa | 0 mm | - | 0 W/m² | - |
| 1777261764 | 2.78° C | 90% | 1020 hPa | 0 mm | - | 0 W/m² | - |
| 1777261077 | 3.33° C | 89% | 1020 hPa | 0 mm | - | 0 W/m² | - |
| 1777260389 | 3.89° C | 86% | 1020 hPa | 0 mm | - | 0 W/m² | - |
* Rain latest hour (hover to see other rain measurements)
** Current wind speed in m/s (hover to see current wind gust speed)